Data for 03/30/2018

Time Sea-Level Adjusted Pressure Absolute Pressure Temperature Relative Humidity Dew Point   
(mb) (inHg) (mb) (inHg) (C) (F) (%) (C) (F)
00:05 1019 30.09 848 25.04 3 37.5 42 -8.6 16.5
00:10 1019 30.09 849 25.07 3.1 37.6 43 -8.4 17
00:15 1019 30.09 848 25.04 3.2 37.8 43 -8.3 17.1
00:20 1019 30.09 848 25.04 3.3 37.9 43 -8.2 17.3
00:25 1019 30.09 848 25.04 3.4 38 43 -8.1 17.4
00:30 1019 30.09 848 25.04 3.5 38.3 35 -10.5 13.1
00:35 1019 30.09 848 25.04 4.4 40 34 -10 14
00:40 1019 30.09 848 25.04 4.6 40.2 37 -9 15.8
00:45 1019 30.09 849 25.07 4.3 39.8 38 -8.7 16.4
00:50 1019 30.09 849 25.07 4.3 39.7 39 -8.6 16.5
00:55 1019 30.09 848 25.04 4.6 40.3 42 -7.4 18.8
01:00 1019 30.09 848 25.04 4.9 40.9 43 -6.5 20.3
01:05 1019 30.09 848 25.04 4.8 40.6 45 -6.2 20.9
01:10 1019 30.09 848 25.04 4.8 40.6 46 -5.9 21.4
01:15 1019 30.09 848 25.04 4.8 40.7 46 -5.7 21.7
01:20 1019 30.09 848 25.04 4.9 40.8 45 -5.9 21.3
01:25 1019 30.09 848 25.04 5.1 41.1 45 -6 21.2
01:30 1019 30.09 848 25.04 5.1 41.2 46 -5.6 21.9
01:35 1019 30.09 848 25.04 5 40.9 47 -5.3 22.4
01:40 1019 30.09 848 25.04 4.8 40.6 49 -5 23
01:45 1019 30.09 848 25.04 4.6 40.3 51 -4.6 23.8
01:50 1019 30.09 848 25.04 4.5 40.1 53 -4.4 24.1
01:55 1019 30.09 848 25.04 4.5 40 53 -4.3 24.2
02:00 1019 30.09 848 25.04 4.5 40.2 49 -5.3 22.5
02:05 1019 30.09 848 25.04 4.7 40.5 49 -5.1 22.9
02:10 1019 30.09 848 25.04 4.8 40.6 51 -4.5 23.8
02:15 1019 30.09 848 25.04 4.8 40.6 48 -5.3 22.5
02:20 1019 30.09 848 25.04 4.9 40.8 50 -4.8 23.4
02:25 1019 30.09 848 25.04 4.8 40.6 49 -5.1 22.9
02:30 1019 30.09 848 25.04 4.9 40.8 47 -5.6 22
02:35 1019 30.09 848 25.04 4.9 40.9 47 -5.4 22.3
02:40 1019 30.09 848 25.04 5 41 49 -4.8 23.3
02:45 1019 30.09 848 25.04 4.8 40.6 51 -4.6 23.7
02:50 1018 30.06 848 25.04 4.5 40.2 52 -4.5 23.9
02:55 1018 30.06 848 25.04 4.4 39.9 52 -4.6 23.8
03:00 1018 30.06 847 25.01 4.3 39.7 51 -5 23
03:05 1018 30.06 847 25.01 4.3 39.8 53 -4.5 23.9
03:10 1018 30.06 847 25.01 4.3 39.7 51 -4.9 23.2
03:15 1018 30.06 847 25.01 4.4 40 50 -5.1 22.8
03:20 1018 30.06 847 25.01 4.5 40.1 50 -5 23.1
03:25 1018 30.06 847 25.01 4.4 40 50 -5.1 22.8
03:30 1018 30.06 847 25.01 4.5 40.1 49 -5.3 22.5
03:35 1018 30.06 847 25.01 4.5 40.1 50 -5.1 22.8
03:40 1017 30.03 847 25.01 4.5 40.1 49 -5.4 22.3
03:45 1017 30.03 847 25.01 4.6 40.2 48 -5.4 22.2
03:50 1017 30.03 847 25.01 4.6 40.2 49 -5.3 22.5
03:55 1017 30.03 846 24.98 4.6 40.3 47 -5.6 21.9
04:00 1017 30.03 846 24.98 4.6 40.3 47 -5.6 22
04:05 1017 30.03 846 24.98 4.7 40.4 47 -5.7 21.8
04:10 1017 30.03 846 24.98 4.7 40.5 46 -5.8 21.5
04:15 1017 30.03 846 24.98 4.8 40.7 46 -5.9 21.4
04:20 1017 30.03 846 24.98 4.9 40.8 46 -5.8 21.6
04:25 1017 30.03 846 24.98 4.9 40.8 46 -5.6 21.8
04:30 1017 30.03 846 24.98 4.9 40.8 46 -5.7 21.8
04:35 1017 30.03 846 24.98 4.8 40.7 48 -5.4 22.4
04:40 1017 30.03 846 24.98 4.7 40.5 47 -5.5 22.1
04:45 1017 30.03 846 24.98 4.8 40.7 47 -5.6 21.9
04:50 1017 30.03 846 24.98 4.9 40.8 47 -5.5 22.2
04:55 1017 30.03 846 24.98 4.9 40.9 46 -5.7 21.7
05:00 1017 30.03 846 24.98 5 41 46 -5.6 21.9
05:05 1017 30.03 846 24.98 5 41.1 47 -5.4 22.2
05:10 1017 30.03 846 24.98 4.9 40.7 47 -5.5 22.1
05:15 1017 30.03 846 24.98 4.9 40.9 46 -5.7 21.8
05:20 1017 30.03 846 24.98 4.9 40.8 47 -5.6 22
05:25 1017 30.03 846 24.98 4.9 40.9 46 -5.6 21.9
05:30 1017 30.03 846 24.98 4.9 40.8 47 -5.4 22.2
05:35 1017 30.03 846 24.98 4.9 40.8 46 -5.7 21.7
05:40 1017 30.03 846 24.98 5.1 41.2 43 -6.3 20.6
05:45 1017 30.03 846 24.98 5.3 41.6 45 -5.7 21.7
05:50 1017 30.03 846 24.98 5.2 41.4 45 -5.7 21.8
05:55 1017 30.03 846 24.98 5.1 41.3 46 -5.5 22
06:00 1017 30.03 846 24.98 5.1 41.1 46 -5.5 22.1
06:05 1017 30.03 846 24.98 5 41 47 -5.3 22.5
06:10 1017 30.03 846 24.98 4.9 40.9 47 -5.3 22.4
06:15 1017 30.03 846 24.98 4.9 40.8 49 -5 23
06:20 1017 30.03 846 24.98 4.8 40.6 48 -5.2 22.6
06:25 1017 30.03 846 24.98 5 41 46 -5.6 22
06:30 1017 30.03 846 24.98 5.2 41.3 46 -5.5 22.1
06:35 1017 30.03 846 24.98 5.2 41.4 47 -5.2 22.7
06:40 1017 30.03 846 24.98 5 41.1 49 -4.8 23.4
06:45 1017 30.03 846 24.98 4.8 40.7 48 -5.1 22.7
06:50 1017 30.03 846 24.98 5 41 48 -5.2 22.7
06:55 1017 30.03 846 24.98 5.1 41.1 47 -5.4 22.3
07:00 1016 30 846 24.98 5.1 41.3 46 -5.6 21.9
07:05 1016 30 846 24.98 5.3 41.5 46 -5.4 22.2
07:10 1016 30 846 24.98 5.3 41.5 46 -5.5 22.1
07:15 1016 30 846 24.98 5.3 41.6 45 -5.6 21.9
07:20 1016 30 845 24.95 5.4 41.8 44 -5.8 21.5
07:25 1016 30 845 24.95 5.5 41.9 45 -5.6 21.9
07:30 1016 30 845 24.95 5.5 41.9 45 -5.5 22
07:35 1016 30 845 24.95 5.5 41.8 45 -5.4 22.2
07:40 1016 30 845 24.95 5.4 41.8 46 -5.4 22.4
07:45 1016 30 845 24.95 5.5 41.8 45 -5.5 22.1
07:50 1016 30 845 24.95 5.5 41.9 45 -5.5 22.1
07:55 1016 30 845 24.95 5.5 42 45 -5.5 22.1
08:00 1016 30 845 24.95 5.5 41.9 46 -5.3 22.5
08:05 1016 30 845 24.95 5.5 41.9 45 -5.6 22
08:10 1016 30 845 24.95 5.5 41.9 46 -5.2 22.6
08:15 1016 30 845 24.95 5.4 41.8 46 -5.4 22.3
08:20 1016 30 845 24.95 5.6 42 44 -5.6 21.9
08:25 1016 30 845 24.95 5.6 42.1 46 -5.2 22.6
08:30 1016 30 845 24.95 5.7 42.2 43 -5.8 21.5
08:35 1016 30 845 24.95 6 42.9 42 -5.8 21.6
08:40 1016 30 845 24.95 6 42.8 43 -5.6 21.9
08:45 1016 30 845 24.95 5.9 42.6 44 -5.5 22.2
08:50 1015 29.97 845 24.95 6 42.7 43 -5.6 22
08:55 1015 29.97 845 24.95 5.9 42.6 44 -5.4 22.2
09:00 1015 29.97 845 24.95 5.9 42.6 44 -5.6 21.9
09:05 1015 29.97 845 24.95 5.9 42.6 44 -5.5 22.1
09:10 1015 29.97 844 24.92 5.9 42.5 45 -5.3 22.5
09:15 1015 29.97 844 24.92 5.8 42.5 46 -5 22.9
09:20 1015 29.97 844 24.92 5.8 42.4 44 -5.4 22.3
09:25 1015 29.97 844 24.92 6 42.9 44 -5.3 22.5
09:30 1015 29.97 844 24.92 6.1 42.9 45 -5 22.9
09:35 1015 29.97 844 24.92 6 42.8 44 -5.4 22.3
09:40 1015 29.97 844 24.92 6.3 43.3 43 -5.5 22.1
09:45 1015 29.97 844 24.92 6.5 43.6 41 -5.8 21.5
09:50 1015 29.97 844 24.92 6.7 44.1 40 -5.8 21.5
09:55 1015 29.97 844 24.92 6.8 44.2 40 -5.8 21.6
10:00 1015 29.97 844 24.92 6.7 44.1 41 -5.6 22
10:05 1015 29.97 844 24.92 6.7 44.1 41 -5.6 21.9
10:10 1015 29.97 844 24.92 6.6 43.9 41 -5.7 21.8
10:15 1015 29.97 844 24.92 6.7 44.1 41 -5.7 21.8
10:20 1015 29.97 844 24.92 6.8 44.2 42 -5.4 22.4
10:25 1015 29.97 844 24.92 6.7 44.1 41 -5.6 22
10:30 1015 29.97 844 24.92 6.8 44.3 40 -5.8 21.6
10:35 1015 29.97 844 24.92 7 44.6 40 -5.7 21.7
10:40 1014 29.94 844 24.92 7.1 44.8 39 -6 21.2
10:45 1014 29.94 844 24.92 7.3 45.1 37 -6.3 20.6
10:50 1014 29.94 844 24.92 7.5 45.4 37 -6.4 20.4
10:55 1014 29.94 843 24.89 7.7 45.8 37 -6.1 21.1
11:00 1014 29.94 843 24.89 7.8 46.1 36 -6.4 20.4
11:05 1014 29.94 843 24.89 8.2 46.8 35 -6.2 20.8
11:10 1014 29.94 843 24.89 8.6 47.4 35 -6.1 21
11:15 1014 29.94 843 24.89 8.8 47.8 33 -6.5 20.2
11:20 1014 29.94 843 24.89 8.9 48.1 33 -6.4 20.5
11:25 1014 29.94 843 24.89 8.8 47.8 34 -6.4 20.4
11:30 1014 29.94 843 24.89 8.4 47.1 34 -6.6 20.1
11:35 1014 29.94 843 24.89 8.3 46.9 35 -6.4 20.5
11:40 1014 29.94 843 24.89 8.1 46.6 35 -6.4 20.4
11:45 1014 29.94 843 24.89 8.1 46.6 34 -7 19.4
11:50 1014 29.94 843 24.89 8.2 46.7 34 -6.7 20
11:55 1014 29.94 843 24.89 8 46.4 34 -6.8 19.8
12:00 1014 29.94 843 24.89 8 46.4 32 -7.6 18.3
12:05 1014 29.94 843 24.89 8.2 46.8 33 -6.9 19.5
12:10 1014 29.94 843 24.89 8.3 47 32 -7.5 18.5
12:15 1014 29.94 843 24.89 8.4 47.2 31 -7.6 18.3
12:20 1014 29.94 843 24.89 8.6 47.4 31 -7.6 18.4
12:25 1014 29.94 843 24.89 8.6 47.5 31 -7.5 18.5
12:30 1014 29.94 843 24.89 8.8 47.8 31 -7.4 18.8
12:35 1013 29.91 843 24.89 9 48.2 30 -7.8 17.9
12:40 1013 29.91 842 24.86 9.3 48.8 30 -7.4 18.7
12:45 1013 29.91 842 24.86 9.8 49.7 30 -6.9 19.5
12:50 1013 29.91 842 24.86 10.2 50.4 30 -6.8 19.8
12:55 1013 29.91 842 24.86 10.9 51.6 28 -7 19.4
13:00 1013 29.91 842 24.86 10.9 51.7 28 -6.7 20
13:05 1013 29.91 842 24.86 11.1 52 28 -6.7 19.9
13:10 1013 29.91 842 24.86 11 51.7 27 -7.3 18.9
13:15 1013 29.91 842 24.86 11.1 51.9 27 -7.1 19.2
13:20 1013 29.91 842 24.86 10.9 51.6 28 -6.7 20
13:25 1013 29.91 842 24.86 10.7 51.3 29 -6.5 20.3
13:30 1013 29.91 842 24.86 11 51.8 29 -6.5 20.3
13:35 1013 29.91 842 24.86 10.9 51.6 30 -5.9 21.3
13:40 1013 29.91 842 24.86 10.8 51.5 28 -7.1 19.3
13:45 1013 29.91 842 24.86 10.9 51.5 28 -6.7 19.9
13:50 1013 29.91 842 24.86 10.7 51.3 28 -7 19.4
13:55 1013 29.91 842 24.86 10.6 51 29 -6.6 20.2
14:00 1013 29.91 842 24.86 10.6 51.1 29 -6.7 20
14:05 1013 29.91 842 24.86 10.7 51.2 28 -7 19.4
14:10 1012 29.88 842 24.86 10.6 51.2 29 -6.8 19.7
14:15 1013 29.91 842 24.86 10.8 51.4 27 -7.3 18.9
14:20 1012 29.88 842 24.86 10.8 51.5 28 -7 19.5
14:25 1012 29.88 842 24.86 10.8 51.4 28 -7 19.5
14:30 1012 29.88 842 24.86 10.8 51.5 28 -7.1 19.3
14:35 1012 29.88 842 24.86 10.9 51.6 28 -7 19.3
14:40 1012 29.88 841 24.83 10.9 51.6 26 -7.8 18
14:45 1012 29.88 841 24.83 11 51.7 26 -7.6 18.2
14:50 1012 29.88 841 24.83 11 51.7 28 -6.6 20.1
14:55 1012 29.88 841 24.83 10.8 51.4 28 -7.1 19.2
15:00 1012 29.88 841 24.83 10.7 51.3 28 -7.2 19.1
15:05 1012 29.88 841 24.83 10.8 51.4 29 -6.8 19.8
15:10 1012 29.88 841 24.83 10.6 51.1 29 -6.9 19.7
15:15 1012 29.88 841 24.83 10.5 51 29 -6.7 20
15:20 1012 29.88 841 24.83 10.5 50.8 29 -6.9 19.7
15:25 1012 29.88 841 24.83 10.4 50.7 30 -6.6 20.1
15:30 1012 29.88 841 24.83 10.4 50.7 30 -6.6 20.1
15:35 1012 29.88 841 24.83 10.5 50.9 28 -7.3 18.8
15:40 1012 29.88 841 24.83 10.8 51.5 29 -6.5 20.3
15:45 1012 29.88 841 24.83 10.5 51 29 -6.5 20.2
15:50 1012 29.88 841 24.83 10.3 50.6 30 -6.6 20.2
15:55 1012 29.88 841 24.83 10.4 50.7 30 -6.6 20.2
16:00 1012 29.88 841 24.83 10.4 50.6 30 -6.6 20
16:05 1012 29.88 841 24.83 10.4 50.7 30 -6.6 20.2
16:10 1012 29.88 841 24.83 10.4 50.8 30 -6.5 20.4
16:15 1012 29.88 841 24.83 10.5 50.8 30 -6.4 20.4
16:20 1012 29.88 841 24.83 10.4 50.7 30 -6.5 20.2
16:25 1012 29.88 841 24.83 10.3 50.6 31 -6.1 21
16:30 1012 29.88 841 24.83 10.3 50.5 31 -6.3 20.7
16:35 1012 29.88 841 24.83 10.3 50.6 30 -6.4 20.5
16:40 1012 29.88 841 24.83 10.7 51.2 28 -7.1 19.2
16:45 1012 29.88 841 24.83 11.1 52 29 -6.3 20.7
16:50 1012 29.88 841 24.83 11.1 52.1 27 -7.3 18.8
16:55 1012 29.88 841 24.83 11.4 52.6 28 -6.6 20.1
17:00 1012 29.88 841 24.83 11.6 52.9 23 -8.8 16.2
17:05 1012 29.88 842 24.86 11.9 53.3 21 -9.6 14.7
17:10 1012 29.88 842 24.86 12 53.6 21 -9.6 14.8
17:15 1012 29.88 841 24.83 12 53.6 21 -9.7 14.5
17:20 1012 29.88 841 24.83 12.1 53.7 21 -9.6 14.7
17:25 1012 29.88 842 24.86 12.1 53.9 22 -9.2 15.5
17:30 1012 29.88 842 24.86 12.3 54.2 21 -9.6 14.8
17:35 1012 29.88 842 24.86 12.3 54.1 20 -9.8 14.4
17:40 1013 29.91 842 24.86 12.2 53.9 21 -9.3 15.2
17:45 1013 29.91 842 24.86 12.1 53.7 23 -8.7 16.4
17:50 1013 29.91 842 24.86 12.1 53.8 25 -7.5 18.5
17:55 1013 29.91 842 24.86 11.8 53.2 25 -7.6 18.3
18:00 1013 29.91 842 24.86 11.8 53.2 25 -7.6 18.3
18:05 1013 29.91 842 24.86 11.6 52.8 25 -7.8 18
18:10 1013 29.91 842 24.86 11.3 52.4 25 -7.8 18
18:15 1013 29.91 842 24.86 11.3 52.3 26 -7.6 18.3
18:20 1013 29.91 842 24.86 11.1 52 26 -7.4 18.7
18:25 1013 29.91 842 24.86 10.9 51.7 26 -7.6 18.3
18:30 1013 29.91 842 24.86 10.8 51.5 27 -7.4 18.8
18:35 1013 29.91 843 24.89 10.7 51.2 29 -6.8 19.8
18:40 1014 29.94 843 24.89 10.2 50.3 36 -4.4 24.1
18:45 1014 29.94 843 24.89 8.7 47.6 40 -4.1 24.7
18:50 1014 29.94 843 24.89 8.1 46.7 41 -4.3 24.2
18:55 1014 29.94 843 24.89 7.7 45.9 41 -4.7 23.6
19:00 1014 29.94 843 24.89 7.6 45.6 42 -4.4 24
19:05 1014 29.94 843 24.89 7.4 45.3 43 -4.5 23.9
19:10 1014 29.94 843 24.89 7.2 44.9 44 -4.3 24.2
19:15 1014 29.94 844 24.92 7.1 44.8 43 -4.6 23.8
19:20 1014 29.94 844 24.92 7.1 44.8 43 -4.7 23.5
19:25 1015 29.97 844 24.92 7.1 44.8 43 -4.7 23.5
19:30 1015 29.97 844 24.92 7.1 44.7 42 -4.8 23.3
19:35 1015 29.97 844 24.92 7 44.5 43 -4.7 23.6
19:40 1015 29.97 844 24.92 6.8 44.2 44 -4.7 23.5
19:45 1015 29.97 845 24.95 6.6 43.9 45 -4.5 23.9
19:50 1016 30 845 24.95 6.4 43.5 46 -4.4 24.1
19:55 1016 30 845 24.95 6.2 43.1 47 -4.4 24.1
20:00 1016 30 845 24.95 5.9 42.6 48 -4.3 24.3
20:05 1016 30 846 24.98 5.5 41.8 50 -4.2 24.4
20:10 1016 30 846 24.98 5.2 41.4 50 -4.5 24
20:15 1016 30 846 24.98 5 41 51 -4.3 24.3
20:20 1016 30 846 24.98 4.7 40.5 52 -4.4 24.1
20:25 1016 30 846 24.98 4.6 40.3 51 -4.6 23.7
20:30 1017 30.03 846 24.98 4.5 40.2 50 -4.9 23.2
20:35 1017 30.03 846 24.98 4.5 40.1 50 -5 23
20:40 1017 30.03 846 24.98 4.3 39.8 56 -3.7 25.4
20:45 1017 30.03 846 24.98 3.7 38.6 56 -4.3 24.3
20:50 1017 30.03 846 24.98 3.6 38.5 55 -4.6 23.7
20:55 1017 30.03 846 24.98 3.7 38.6 55 -4.5 23.9
21:00 1017 30.03 847 25.01 3.4 38.1 60 -3.7 25.4
21:05 1017 30.03 847 25.01 2.5 36.5 62 -4.1 24.6
21:10 1018 30.06 847 25.01 2.6 36.7 60 -4.3 24.2
21:15 1018 30.06 847 25.01 2.7 36.9 59 -4.5 23.9
21:20 1018 30.06 847 25.01 2.8 37 57 -4.8 23.3
21:25 1018 30.06 847 25.01 2.6 36.6 60 -4.4 24
21:30 1018 30.06 847 25.01 2.2 36 62 -4.4 24.1
21:35 1018 30.06 847 25.01 2.1 35.7 61 -4.7 23.5
21:40 1018 30.06 847 25.01 1.9 35.5 62 -4.7 23.6
21:45 1018 30.06 847 25.01 1.8 35.2 62 -4.8 23.4
21:50 1018 30.06 847 25.01 1.6 34.9 62 -4.8 23.4
21:55 1018 30.06 847 25.01 1.5 34.8 63 -4.8 23.4
22:00 1018 30.06 847 25.01 1.5 34.7 61 -5.2 22.6
22:05 1018 30.06 847 25.01 1.4 34.6 61 -5.3 22.5
22:10 1018 30.06 847 25.01 1.3 34.3 61 -5.4 22.2
22:15 1018 30.06 847 25.01 0.7 33.3 62 -5.7 21.7
22:20 1018 30.06 847 25.01 0.3 32.6 63 -5.8 21.5
22:25 1018 30.06 847 25.01 -0.1 31.8 65 -5.9 21.4
22:30 1018 30.06 847 25.01 -0.4 31.3 66 -6 21.2
22:35 1018 30.06 847 25.01 -0.6 30.8 67 -6.1 21
22:40 1018 30.06 847 25.01 -0.9 30.3 67 -6.3 20.6
22:45 1018 30.06 847 25.01 -1.4 29.6 66 -6.9 19.5
22:50 1018 30.06 847 25.01 -1.9 28.5 67 -7.3 18.8
22:55 1018 30.06 847 25.01 -2.2 28 67 -7.5 18.5
23:00 1018 30.06 848 25.04 -2.4 27.7 67 -7.7 18.1
23:05 1018 30.06 848 25.04 -2.6 27.3 67 -7.8 17.9
23:10 1019 30.09 848 25.04 -2.8 26.9 69 -7.7 18.1
23:15 1019 30.09 848 25.04 -2.8 26.9 69 -7.7 18.2
23:20 1019 30.09 848 25.04 -2.9 26.8 71 -7.5 18.5
23:25 1019 30.09 848 25.04 -3.1 26.5 71 -7.6 18.3
23:30 1019 30.09 848 25.04 -3.2 26.2 72 -7.6 18.3
23:35 1019 30.09 848 25.04 -3.4 25.9 71 -7.9 17.7
23:40 1019 30.09 848 25.04 -3.6 25.5 71 -8.1 17.3
23:45 1019 30.09 848 25.04 -3.9 25 70 -8.6 16.4
23:50 1019 30.09 848 25.04 -4.1 24.5 69 -9 15.8
23:55 1019 30.09 848 25.04 -4.3 24.3 69 -9.2 15.5
24:00 1019 30.09 848 25.04 -4.6 23.8 70 -9.3 15.3